Rechercher aéroport 
image banner adimage banner adimage banner ad
image banner ad

21CA - Oxy Usa Inc Huntington Beach

Situé à Huntington Beach, United States

ICAO - 21CA, IATA -

Données fournies par Airmate  

Information générale

Coordonnées: N33°41'2" W118°1'54"
Élévation : 40 feet MSL.
Variation magnétique : 14° East
Voir autres Aéroports à California

Données opérationnelles

Special qualification required
Heure actuelle UTC:
Heure actuelle locale:
Météo à : KSLI - Los Alamitos Aaf ( 12 km )
METAR: KSLI 260858Z AUTO 21004KT 10SM OVC016 18/16 A3001 RMK AO2 SLP165 T01810155 53003
TAF: TAF AMD KSLI 260600Z 2606/2711 VRB06KT 9999 OVC010 QNH3000INS BECMG 2610/2611 VRB06KT 9999 SCT009 QNH2999INS TEMPO 2611/2616 6000 BR OVC009 BECMG 2618/2619 VRB06KT 9999 FEW100 QNH2997INS TX26/2621Z TN14/2611Z
Voir NOTAMs / SUP AIP / TFR affectant cet aéroport [VIEW]
Fréquences de communication: [VIEW]

Pistes:

Coordonnées de l'aéroport

Adresse: Huntington Beach United States

Vue satellite de 21CA